Dutton, Virginia
Current Conditions -  °F | °C
As of 7:55 AM on Thursday 30 Oct 2014 (Local Time) from KW75 Reporting Station
Broken Clouds Broken Clouds  
Wind Chill: 53°   Ceiling: 600
Heat Index: 53°   Visibility: 10mi
Dew Point: 51°   Wind: 5mph
Humidity: 95%   Direction: 310°NW
Pressure: 30.02"   Gusts: NA
Location:  37.5°N, 76.46°W
Report Text: KW75 301155Z AUTO 31004KT 10SM BKN006 12/11 A3002 RMK AO1 60002 7//// T01150108 10128 20109
Loading
Personal Weather Stations






























Interactive Weather Map
Tropical Storm Tracking
New forecast layout! Learn more

10-Day Weather Forecast

Advertisements
Track Severe Weather on mobile